Frisco, NC (27936)

5:46 PM EDT on October 22, 2014 (GMT -0400)
Mitchell | Change Station
CLOSE
Current Station
Airport
Location: Hatteras,
Elevation: 10 ft
Nearby Weather Stations

Elev 10 ft 35.23 °N, 75.62 °W | Updated 55 minutes ago

Overcast
Overcast
58 °F
Feels Like 58 °F
N
17
Wind Variable Wind from NW
Gusts 29 mph

Today
High -- | Low -- °F
--% Chance of Precip.
Yesterday
High -- | Low -- °F
Precip. -- in
7:14 AM 6:18 PM
Waning Crescent, 1% visible
Pressure 29.86 in
Visibility 10.0 miles
Clouds Scattered Clouds 2400 ft
Mostly Cloudy 3600 ft
Overcast 4900 ft
Dew Point 51 °F
Humidity 78%
Rainfall 0.00 in
Snow Depth Not available.
UV 0 out of 12
Pollen 1.90 out of 12
Air Quality Not available.
Flu Activity Sporadic
METAR KHSE 222051Z AUTO 31015G25KT 10SM SCT024 BKN036 OVC049 14/11 A2985 RMK AO2 PK WND 30026/2021 SLP109 T01440106 53002 TSNO

More Conditions Fewer Conditions

Pressure 29.86 in
Visibility 10.0 miles
Clouds Scattered Clouds 2400 ft
Mostly Cloudy 3600 ft
Overcast 4900 ft
Dew Point 51 °F
Humidity 78%
Rainfall 0.00 in
Snow Depth Not available.
UV 0 out of 12
Pollen 1.90 out of 12
Air Quality Not available.
Flu Activity Sporadic
METAR KHSE 222051Z AUTO 31015G25KT 10SM SCT024 BKN036 OVC049 14/11 A2985 RMK AO2 PK WND 30026/2021 SLP109 T01440106 53002 TSNO

More Conditions Fewer Conditions

10-Day Weather Forecast

Almanac

Astronomy

Oct. 22, 2014 Rise Set
Actual Time 7:14 AM EDT 6:18 PM EDT
Civil Twilight 6:48 AM EDT 6:44 PM EDT
Nautical Twilight 6:19 AM EDT 7:14 PM EDT
Astronomical Twilight 5:49 AM EDT 7:43 PM EDT
Moon 5:56 AM EDT 5:42 PM EDT
Length of Visible Light 11h 55m
Length of Day
11h 04m
Tomorrow will be 2m 3s shorter.
Waning Crescent, 1% of the Moon is Illuminated
Today
Waning Crescent
Oct 23
New
Oct 30
First Quarter
Nov 6
Full
Nov 14
Last Quarter

Today's Extremes

State Highs State Lows

Community

WunderPhotos

Upload Photos

1,764,047 photos uploaded!

WunderBlogs® & News

Nearby

Snow Depth

Station Depth Elevation
No new snow has been reported.

Earthquake Activity

City Distance Mag. Time & Date
No recent earthquake activity has been reported nearby.
Minimum magnitude displayed is 2.5.

Coastal Water Temperatures

Place Temperature
Beaufort, NC 69.1 °F
Hatteras, NC 68.0 °F
Oregon Inlet Marina, NC 64.9 °F
Duck Pier, NC 69.1 °F
Johnny Mercer Pier, Wrightsville Beach, NC 73.9 °F

Nearby Weather Stations